Terminal Aerodrome Forecast
Issued by NWS

Home | Current Version | Previous Version | Text Only | Print | Product List | Glossary On
Versions: 1 2 3 4 5 6 7 8 9 10 11 12 13 14 15 16 17 18 19 20 21 22 23 24 25 26 27 28 29 30 31 32 33 34 35 36 37 38 39 40 41 42 43 44 45 46 47 48
000
FTUS46 KOTX 230539
TAFCOE
TAF
KCOE 230539Z 2306/2406 21006KT P6SM OVC015
     FM231500 22005KT 2SM -SN BKN008 OVC030
     FM231800 22008KT 4SM -SNRA BKN010 OVC020
     FM232100 22012KT P6SM -RA BKN010 OVC020
     FM240400 25008KT P6SM VCSH BKN015
      AMD LTD TO CLD AND VIS=

USA.gov is the U.S. government's official web portal to all federal, state and local government web resources and services.